Date,TemperatureHighF,TemperatureAvgF,TemperatureLowF,DewpointHighF,DewpointAvgF,DewpointLowF,HumidityHigh,HumidityAvg,HumidityLow,PressureMaxIn,PressureMinIn,WindSpeedMaxMPH,WindSpeedAvgMPH,GustSpeedMaxMPH,PrecipitationSumIn
2013-10-1,83,70,59,60,56,53,82,62,39,29.99,29.87,6,1,10,0.00
2013-10-2,85,75,62,63,60,56,82,61,44,30.00,29.89,6,1,15,0.00
2013-10-3,81,72,65,60,56,52,77,58,38,30.11,30.00,5,1,9,0.00
2013-10-4,87,74,65,67,63,56,86,70,50,30.05,29.95,8,1,13,0.00
2013-10-5,77,68,64,65,63,61,91,84,66,30.09,29.99,8,2,11,0.08
2013-10-6,69,67,64,67,65,63,95,93,90,30.09,30.02,9,2,11,0.00
2013-10-7,76,69,62,69,64,50,94,86,64,30.02,29.77,12,4,25,0.39
2013-10-8,68,62,56,49,44,41,67,53,39,30.31,29.98,11,3,17,0.00
2013-10-9,63,55,54,49,38,-100,77,62,58,30.38,30.27,8,-61,12,0.00
2013-10-10,64,56,55,56,43,-100,86,74,74,30.26,30.05,12,-62,13,0.00
2013-10-11,67,64,60,59,57,54,85,79,66,30.07,29.99,12,3,17,0.00
2013-10-12,73,65,60,55,48,37,75,56,27,30.26,30.05,11,3,16,0.00
2013-10-13,65,60,55,53,51,48,80,73,63,30.37,30.26,8,2,14,0.00
2013-10-14,66,57,50,51,48,44,86,74,53,30.36,30.24,7,1,9,0.00
2013-10-15,72,60,52,55,51,47,91,74,44,30.25,30.10,7,1,12,0.00
2013-10-16,68,61,56,59,56,51,92,83,70,30.10,29.91,6,1,8,0.00
2013-10-17,75,65,61,63,61,58,93,86,64,29.91,29.68,6,1,11,0.00
2013-10-18,68,63,57,63,48,41,89,59,40,29.97,29.66,12,3,20,0.01
2013-10-19,64,58,51,55,47,42,86,68,49,29.98,29.74,7,1,9,0.00
2013-10-20,62,57,50,55,40,33,86,55,35,30.05,29.74,11,3,19,0.00
2013-10-21,68,58,49,47,41,36,72,56,33,30.14,29.98,9,1,14,0.00
2013-10-22,68,59,53,51,47,38,84,66,49,29.97,29.73,8,1,13,0.00
2013-10-23,54,51,46,41,37,33,70,60,46,29.80,29.60,11,2,17,0.00
2013-10-24,55,48,42,36,31,25,74,55,36,30.00,29.74,13,4,17,0.00
2013-10-25,53,47,40,34,31,26,69,55,37,30.21,30.00,14,4,21,0.00
2013-10-26,56,49,41,36,33,30,76,55,36,30.21,29.89,7,1,14,0.00
2013-10-27,58,52,48,34,32,30,58,47,36,30.11,29.84,12,3,19,0.00
2013-10-28,62,53,43,36,34,31,71,50,36,30.29,30.11,7,1,18,0.00
2013-10-29,56,49,44,37,33,31,66,54,42,30.40,30.30,7,1,13,0.00
2013-10-30,61,54,46,51,43,33,84,68,57,30.34,30.17,4,0,7,0.00
2013-10-31,65,60,53,60,56,49,90,85,81,30.21,29.80,7,2,13,0.05